If you wish to contribute or participate in the discussions about articles you are invited to join SKYbrary as a registered user

 Actions

Colmar-Houssen Airport

From SKYbrary Wiki

LFGA
Airport
ICAO: LFGA – IATA: CMR
Summary
Name Colmar-Houssen Airport
Region Europe
Territory France FR.gif
Location , Alsace
Serving Colmar
Elevation 191.414 m
628 ft
628 ft191.414 m
Type medium airport
Coordinates 48° 6' 35.47" N, 7° 21' 32.44" E
Runways
Designator Length Width Surface ROPS
1/19 1610 m5,282.152 ft
30 m98.425 ft
ASP /


METAR
Observation LFGA 202100Z AUTO 22003KT CAVOK 13/12 Q1028
Station Colmar-Houssen
Date/Time 20 August 2019 21:00:00
Wind direction 220°
Wind speed 03 kts
Lowest cloud amount clouds and visibility OK
Temperature 13°C
Dew point 12°C
Humidity 93%
QNH 1028 hPa
Weather condition n/a